Time;durP1;ratioP1;P1;durP2;ratioP2;P2;SDS_P1;SDS_P2;PMS_P1;PMS_P2;Temp;Humidity;BMP_temperature;BMP_pressure;BME280_temperature;BME280_humidity;BME280_pressure;Samples;Min_cycle;Max_cycle;Signal;HPM_P1;HPM_P2
2023/12/07 00:01:03;;;;;;;23.80;11.18;;;;;;;-0.30;100.00;101817.72;5049659;28;20018;-73
2023/12/07 00:03:28;;;;;;;22.05;10.65;;;;;;;-0.34;100.00;101818.66;5053277;28;20111;-73
2023/12/07 00:05:53;;;;;;;23.35;11.00;;;;;;;-0.35;100.00;101817.78;5050928;28;20028;-72
2023/12/07 00:08:18;;;;;;;22.20;10.18;;;;;;;-0.41;100.00;101812.53;5060093;28;20079;-73
2023/12/07 00:10:44;;;;;;;24.02;11.02;;;;;;;-0.42;100.00;101814.31;5052966;28;20501;-73
2023/12/07 00:13:09;;;;;;;25.80;12.38;;;;;;;-0.42;100.00;101810.81;5060857;28;20032;-73
2023/12/07 00:15:34;;;;;;;23.10;9.90;;;;;;;-0.43;100.00;101807.28;5052947;28;20164;-73
2023/12/07 00:18:00;;;;;;;21.58;11.20;;;;;;;-0.38;100.00;101804.59;5062970;28;20481;-73
2023/12/07 00:20:25;;;;;;;26.35;12.00;;;;;;;-0.37;100.00;101809.88;5065599;28;20099;-70
2023/12/07 00:22:51;;;;;;;22.63;10.82;;;;;;;-0.36;100.00;101801.03;5061857;28;20040;-69
2023/12/07 00:25:16;;;;;;;24.55;11.98;;;;;;;-0.38;100.00;101807.22;5064641;28;20020;-70
2023/12/07 00:27:41;;;;;;;24.42;10.30;;;;;;;-0.40;100.00;101804.59;5069478;28;20036;-69
2023/12/07 00:30:07;;;;;;;24.13;11.43;;;;;;;-0.40;100.00;101809.88;5059177;28;20078;-69
2023/12/07 00:32:32;;;;;;;23.30;10.82;;;;;;;-0.43;100.00;101815.22;5060441;28;20516;-70
2023/12/07 00:34:57;;;;;;;24.50;12.27;;;;;;;-0.44;100.00;101818.78;5067045;28;20033;-69
2023/12/07 00:37:23;;;;;;;24.10;11.75;;;;;;;-0.43;100.00;101812.56;5056897;28;20039;-69
2023/12/07 00:39:48;;;;;;;22.67;12.05;;;;;;;-0.44;100.00;101808.19;5052238;28;20040;-70
2023/12/07 00:42:13;;;;;;;24.90;12.75;;;;;;;-0.46;100.00;101812.59;5052807;28;20102;-69
2023/12/07 00:44:40;;;;;;;23.33;11.85;;;;;;;-0.41;100.00;101810.81;5056355;28;20029;-70
2023/12/07 00:47:05;;;;;;;25.27;12.15;;;;;;;-0.40;100.00;101812.53;5062074;28;20033;-70
2023/12/07 00:49:31;;;;;;;25.98;11.98;;;;;;;-0.42;100.00;101803.75;5064780;28;20041;-69
2023/12/07 00:51:56;;;;;;;25.92;13.18;;;;;;;-0.43;100.00;101798.50;5059905;28;20263;-69
2023/12/07 00:54:21;;;;;;;24.40;12.32;;;;;;;-0.47;100.00;101800.31;5075632;28;20110;-69
2023/12/07 00:56:47;;;;;;;24.45;11.55;;;;;;;-0.50;100.00;101807.38;5070517;28;20028;-71
2023/12/07 00:59:12;;;;;;;24.42;12.73;;;;;;;-0.52;100.00;101810.06;5069211;28;20048;-70
2023/12/07 01:01:38;;;;;;;27.60;12.95;;;;;;;-0.51;100.00;101801.25;5057753;28;20028;-69
2023/12/07 01:04:05;;;;;;;30.17;14.07;;;;;;;-0.52;100.00;101817.09;5067765;28;20029;-69
2023/12/07 01:06:30;;;;;;;26.92;13.02;;;;;;;-0.48;100.00;101809.13;5066100;28;20029;-69
2023/12/07 01:08:56;;;;;;;25.40;13.77;;;;;;;-0.47;100.00;101808.25;5064717;28;20115;-69
2023/12/07 01:11:21;;;;;;;28.77;14.15;;;;;;;-0.48;100.00;101817.03;5063339;28;20028;-70
2023/12/07 01:13:46;;;;;;;24.63;12.90;;;;;;;-0.50;100.00;101823.22;5062700;28;20399;-69
2023/12/07 01:16:12;;;;;;;29.27;14.48;;;;;;;-0.46;100.00;101825.81;5059335;28;20052;-69
2023/12/07 01:18:37;;;;;;;25.00;13.93;;;;;;;-0.40;100.00;101828.38;5057409;28;20044;-70
2023/12/07 01:21:03;;;;;;;28.63;14.77;;;;;;;-0.39;100.00;101821.34;5053139;28;20032;-70
2023/12/07 01:23:28;;;;;;;29.05;14.90;;;;;;;-0.34;100.00;101823.94;5058860;28;20031;-70
2023/12/07 01:25:53;;;;;;;25.85;14.15;;;;;;;-0.27;100.00;101815.03;5062726;28;20036;-69
2023/12/07 01:28:19;;;;;;;27.83;14.50;;;;;;;-0.29;100.00;101815.06;5061022;28;20036;-70
2023/12/07 01:30:44;;;;;;;31.42;14.30;;;;;;;-0.27;100.00;101809.75;5050964;28;20056;-71
2023/12/07 01:33:09;;;;;;;25.63;14.32;;;;;;;-0.34;100.00;101819.50;5048280;28;20036;-71
2023/12/07 01:35:35;;;;;;;26.02;14.73;;;;;;;-0.36;100.00;101819.53;5051298;28;20028;-71
2023/12/07 01:38:00;;;;;;;25.75;14.15;;;;;;;-0.32;100.00;101816.84;5044301;28;20033;-71
2023/12/07 01:40:25;;;;;;;26.85;14.00;;;;;;;-0.29;100.00;101814.16;5043312;28;20036;-71
2023/12/07 01:42:52;;;;;;;28.58;13.52;;;;;;;-0.29;100.00;101817.69;5049228;28;20024;-71
2023/12/07 01:45:17;;;;;;;26.70;13.70;;;;;;;-0.29;100.00;101819.44;5050372;28;20566;-71
2023/12/07 01:47:44;;;;;;;28.85;14.18;;;;;;;-0.27;100.00;101823.81;5052784;28;20047;-71
2023/12/07 01:50:10;;;;;;;28.05;13.90;;;;;;;-0.26;100.00;101827.34;5059643;28;20044;-71
2023/12/07 01:52:41;;;;;;;27.30;14.90;;;;;;;-0.23;100.00;101827.31;5052613;28;20139;-71
2023/12/07 01:55:11;;;;;;;26.20;13.02;;;;;;;-0.22;100.00;101818.47;5060162;28;20123;-71
2023/12/07 01:57:37;;;;;;;30.25;15.10;;;;;;;-0.23;100.00;101822.03;5050617;28;20037;-71
2023/12/07 02:00:03;;;;;;;56.10;17.13;;;;;;;-0.23;100.00;101828.19;5057258;28;20210;-71
2023/12/07 02:02:30;;;;;;;31.88;15.90;;;;;;;-0.18;100.00;101820.19;5063668;28;20033;-69
2023/12/07 02:04:56;;;;;;;39.22;18.38;;;;;;;-0.12;100.00;101830.69;5058020;28;20159;-70
2023/12/07 02:07:23;;;;;;;40.97;14.90;;;;;;;-0.07;100.00;101814.78;5055410;28;20052;-70
2023/12/07 02:09:49;;;;;;;62.97;19.58;;;;;;;0.04;100.00;101819.91;5054738;28;20120;-69
2023/12/07 02:12:14;;;;;;;73.78;19.70;;;;;;;0.11;100.00;101824.22;5065268;28;20123;-69
2023/12/07 02:14:40;;;;;;;53.55;21.02;;;;;;;0.16;100.00;101814.44;5068413;28;20089;-69
2023/12/07 02:17:20;;;;;;;59.63;19.10;;;;;;;0.19;100.00;101825.00;5059370;28;20067;-70
2023/12/07 02:19:52;;;;;;;50.78;16.88;;;;;;;0.22;100.00;101821.41;5047532;28;20128;-71
2023/12/07 02:22:31;;;;;;;83.70;19.20;;;;;;;0.20;100.00;101832.00;5057576;28;20029;-69
2023/12/07 02:25:07;;;;;;;57.07;16.40;;;;;;;0.23;100.00;101836.38;5062680;28;20025;-71
2023/12/07 02:27:45;;;;;;;48.20;17.17;;;;;;;0.25;100.00;101834.59;5057913;28;20587;-69
2023/12/07 02:30:11;;;;;;;59.47;16.20;;;;;;;0.27;100.00;101833.66;5058766;28;20520;-69
2023/12/07 02:32:38;;;;;;;38.67;13.65;;;;;;;0.27;100.00;101832.81;5061588;28;20099;-69
2023/12/07 02:35:05;;;;;;;47.90;17.25;;;;;;;0.27;100.00;101827.53;5051452;28;20031;-70
2023/12/07 02:37:37;;;;;;;64.68;16.27;;;;;;;0.28;100.00;101829.25;5054304;28;20285;-69
2023/12/07 02:40:04;;;;;;;41.15;16.38;;;;;;;0.30;100.00;101828.34;5060176;28;20032;-69
2023/12/07 02:42:31;;;;;;;41.00;16.23;;;;;;;0.30;100.00;101830.13;5061294;28;20068;-69
2023/12/07 02:44:57;;;;;;;45.72;15.73;;;;;;;0.32;100.00;101825.66;5053452;28;20523;-70
2023/12/07 02:47:22;;;;;;;34.40;14.07;;;;;;;0.31;100.00;101824.81;5052458;28;20037;-71
2023/12/07 02:49:47;;;;;;;109.60;20.45;;;;;;;0.31;100.00;101819.50;5056703;28;20064;-70
2023/12/07 02:52:13;;;;;;;57.17;16.30;;;;;;;0.30;100.00;101823.03;5058177;28;20029;-69
2023/12/07 02:54:38;;;;;;;67.32;16.63;;;;;;;0.32;100.00;101825.66;5057953;28;20087;-70
2023/12/07 02:57:03;;;;;;;42.55;16.27;;;;;;;0.32;100.00;101830.94;5059750;28;20088;-69
2023/12/07 02:59:29;;;;;;;52.67;16.13;;;;;;;0.31;100.00;101822.16;5056859;28;20517;-69
2023/12/07 03:01:54;;;;;;;42.53;16.20;;;;;;;0.32;100.00;101823.91;5055557;28;20036;-69
2023/12/07 03:04:19;;;;;;;54.55;18.00;;;;;;;0.34;100.00;101822.09;5059682;28;20108;-70
2023/12/07 03:06:44;;;;;;;44.38;14.05;;;;;;;0.34;100.00;101823.91;5052278;28;20112;-69
2023/12/07 03:09:10;;;;;;;35.22;14.20;;;;;;;0.38;100.00;101825.59;5053709;28;20039;-72
2023/12/07 03:11:35;;;;;;;71.75;15.80;;;;;;;0.38;100.00;101822.94;5051646;28;20120;-73
2023/12/07 03:14:00;;;;;;;59.00;17.90;;;;;;;0.35;100.00;101825.63;5046561;28;20051;-73
2023/12/07 03:16:25;;;;;;;66.32;18.85;;;;;;;0.34;100.00;101829.19;5047237;28;20122;-74
2023/12/07 03:18:51;;;;;;;89.93;19.85;;;;;;;0.33;100.00;101827.44;5050350;28;20063;-73
2023/12/07 03:21:16;;;;;;;53.22;15.18;;;;;;;0.31;100.00;101827.44;5052756;28;20028;-72
2023/12/07 03:23:41;;;;;;;39.30;15.60;;;;;;;0.36;100.00;101831.81;5052823;28;20021;-73
2023/12/07 03:26:07;;;;;;;65.05;18.13;;;;;;;0.38;100.00;101832.63;5052822;28;20107;-72
2023/12/07 03:28:32;;;;;;;70.72;16.60;;;;;;;0.37;100.00;101836.16;5055799;28;20151;-73
2023/12/07 03:30:57;;;;;;;94.07;17.65;;;;;;;0.38;100.00;101840.56;5049156;28;20401;-73
2023/12/07 03:33:22;;;;;;;48.92;16.92;;;;;;;0.39;100.00;101829.09;5049669;28;20021;-73
2023/12/07 03:35:49;;;;;;;54.88;15.55;;;;;;;0.36;100.00;101834.44;5051542;28;20021;-73
2023/12/07 03:38:14;;;;;;;39.10;16.17;;;;;;;0.34;100.00;101840.63;5045701;28;20020;-73
2023/12/07 03:40:40;;;;;;;31.25;15.65;;;;;;;0.34;100.00;101837.97;5056799;28;20162;-73
2023/12/07 03:43:05;;;;;;;49.25;17.23;;;;;;;0.33;100.00;101841.50;5053787;28;20017;-73
2023/12/07 03:45:30;;;;;;;52.28;15.80;;;;;;;0.30;100.00;101852.13;5044767;28;20032;-73
2023/12/07 03:47:56;;;;;;;39.45;16.23;;;;;;;0.29;100.00;101845.13;5050454;28;20012;-73
2023/12/07 03:50:21;;;;;;;55.00;17.60;;;;;;;0.30;100.00;101852.13;5047477;28;20575;-73
2023/12/07 03:52:46;;;;;;;49.58;17.63;;;;;;;0.31;100.00;101850.38;5050331;28;20085;-73
2023/12/07 03:55:12;;;;;;;35.08;14.52;;;;;;;0.33;100.00;101846.78;5050029;28;21042;-73
2023/12/07 03:57:37;;;;;;;56.78;16.15;;;;;;;0.36;100.00;101858.25;5049339;28;20026;-73
2023/12/07 04:00:04;;;;;;;43.47;14.73;;;;;;;0.36;100.00;101858.25;5048612;28;20025;-72
2023/12/07 04:02:32;;;;;;;35.50;15.27;;;;;;;0.37;100.00;101859.97;5048561;28;20380;-73
2023/12/07 04:05:01;;;;;;;30.65;15.38;;;;;;;0.39;100.00;101863.47;5050625;28;20103;-73
2023/12/07 04:07:27;;;;;;;52.88;15.23;;;;;;;0.38;100.00;101853.78;5045582;28;20354;-73
2023/12/07 04:09:52;;;;;;;39.08;17.58;;;;;;;0.39;100.00;101847.63;5044171;28;20083;-73
2023/12/07 04:12:17;;;;;;;37.47;15.98;;;;;;;0.40;100.00;101855.53;5042839;28;20021;-73
2023/12/07 04:14:42;;;;;;;55.67;17.35;;;;;;;0.38;100.00;101862.63;5045486;28;20017;-73
2023/12/07 04:17:08;;;;;;;61.42;15.50;;;;;;;0.37;100.00;101860.88;5055125;28;20469;-73
2023/12/07 04:19:33;;;;;;;42.90;16.30;;;;;;;0.39;100.00;101863.47;5059108;28;20027;-71
2023/12/07 04:21:58;;;;;;;58.88;17.13;;;;;;;0.38;100.00;101861.72;5054746;28;20025;-71
2023/12/07 04:24:24;;;;;;;28.52;13.82;;;;;;;0.39;100.00;101864.34;5061984;28;20021;-71
2023/12/07 04:26:49;;;;;;;35.05;15.38;;;;;;;0.39;100.00;101869.63;5064385;28;20150;-71
2023/12/07 04:29:14;;;;;;;49.70;14.43;;;;;;;0.39;100.00;101876.72;5054862;28;20040;-69
2023/12/07 04:31:40;;;;;;;32.92;15.45;;;;;;;0.41;100.00;101877.53;5054900;28;20312;-70
2023/12/07 04:34:05;;;;;;;42.85;16.23;;;;;;;0.38;100.00;101869.66;5059060;28;20028;-72
2023/12/07 04:36:31;;;;;;;33.35;16.63;;;;;;;0.37;100.00;101876.72;5063025;28;20032;-70
2023/12/07 04:38:56;;;;;;;53.38;16.60;;;;;;;0.39;100.00;101874.06;5058004;28;20094;-72
2023/12/07 04:41:22;;;;;;;35.33;16.10;;;;;;;0.39;100.00;101876.72;5048039;28;20027;-70
2023/12/07 04:43:47;;;;;;;39.70;15.65;;;;;;;0.38;100.00;101873.19;5058498;28;20021;-69
2023/12/07 04:46:12;;;;;;;63.30;18.17;;;;;;;0.39;100.00;101871.41;5064277;28;20075;-70
2023/12/07 04:48:38;;;;;;;38.05;15.38;;;;;;;0.34;100.00;101871.50;5061463;28;20383;-70
2023/12/07 04:51:03;;;;;;;37.80;16.92;;;;;;;0.33;100.00;101867.09;5054437;28;20041;-70
2023/12/07 04:53:29;;;;;;;53.00;17.27;;;;;;;0.31;100.00;101861.81;5054489;28;20017;-70
2023/12/07 04:55:54;;;;;;;48.38;15.32;;;;;;;0.29;100.00;101863.63;5057249;28;20102;-71
2023/12/07 04:58:19;;;;;;;33.97;16.55;;;;;;;0.29;100.00;101863.63;5053963;28;20556;-69
2023/12/07 05:00:44;;;;;;;40.20;15.68;;;;;;;0.30;100.00;101860.06;5063706;28;20039;-69
2023/12/07 05:03:10;;;;;;;39.67;14.75;;;;;;;0.32;100.00;101857.41;5060839;28;20048;-69
2023/12/07 05:05:36;;;;;;;36.38;12.48;;;;;;;0.30;100.00;101848.63;5059340;28;20079;-70
2023/12/07 05:08:01;;;;;;;58.10;12.80;;;;;;;0.30;100.00;101832.75;5068745;28;20153;-71
2023/12/07 05:10:26;;;;;;;55.55;15.68;;;;;;;0.31;100.00;101834.53;5054662;28;20043;-70
2023/12/07 05:12:52;;;;;;;28.48;11.98;;;;;;;0.34;100.00;101837.97;5053069;28;20116;-68
2023/12/07 05:15:17;;;;;;;42.85;11.82;;;;;;;0.39;100.00;101826.47;5054708;28;20447;-69
2023/12/07 05:17:42;;;;;;;40.08;12.88;;;;;;;0.39;100.00;101832.63;5055512;28;20048;-71
2023/12/07 05:20:08;;;;;;;55.45;12.75;;;;;;;0.40;100.00;101830.88;5062298;28;20052;-70
2023/12/07 05:22:33;;;;;;;57.33;13.20;;;;;;;0.39;100.00;101834.41;5058206;28;20408;-70
2023/12/07 05:24:59;;;;;;;39.90;13.68;;;;;;;0.38;100.00;101835.28;5063037;28;20437;-70
2023/12/07 05:27:24;;;;;;;53.30;14.43;;;;;;;0.38;100.00;101833.53;5051499;28;20036;-70
2023/12/07 05:29:49;;;;;;;28.08;12.43;;;;;;;0.37;100.00;101830.88;5054299;28;20081;-70
2023/12/07 05:32:15;;;;;;;47.10;14.55;;;;;;;0.37;100.00;101829.13;5066979;28;20037;-70
2023/12/07 05:34:41;;;;;;;61.13;13.60;;;;;;;0.38;100.00;101825.59;5062868;28;20401;-70
2023/12/07 05:37:06;;;;;;;49.08;14.20;;;;;;;0.41;100.00;101836.13;5060264;28;20142;-70
2023/12/07 05:39:31;;;;;;;33.33;12.18;;;;;;;0.42;100.00;101832.56;5063403;28;20409;-69
2023/12/07 05:41:57;;;;;;;32.08;12.82;;;;;;;0.43;100.00;101831.69;5061825;28;20425;-71
2023/12/07 05:44:22;;;;;;;31.23;11.60;;;;;;;0.44;100.00;101828.13;5058752;28;20028;-70
2023/12/07 05:46:48;;;;;;;28.08;12.05;;;;;;;0.44;100.00;101824.59;5063046;28;20032;-70
2023/12/07 05:49:14;;;;;;;39.80;14.75;;;;;;;0.44;100.00;101829.88;5057033;28;20060;-71
2023/12/07 05:51:39;;;;;;;37.83;13.77;;;;;;;0.43;100.00;101822.88;5060518;28;20024;-72
2023/12/07 05:54:05;;;;;;;43.03;14.63;;;;;;;0.45;100.00;101821.06;5056491;28;20086;-72
2023/12/07 05:56:31;;;;;;;42.85;13.57;;;;;;;0.47;100.00;101820.16;5056823;28;20085;-71
2023/12/07 05:58:56;;;;;;;34.78;13.43;;;;;;;0.50;100.00;101827.19;5056315;28;20032;-72
2023/12/07 06:01:22;;;;;;;30.08;12.60;;;;;;;0.49;100.00;101828.94;5054577;28;20033;-71
2023/12/07 06:03:47;;;;;;;51.42;13.75;;;;;;;0.50;100.00;101828.03;5054467;28;20062;-72
2023/12/07 06:06:12;;;;;;;28.73;11.52;;;;;;;0.51;100.00;101821.88;5054501;28;20483;-71
2023/12/07 06:08:38;;;;;;;32.85;13.75;;;;;;;0.54;100.00;101817.41;5057740;28;20039;-72
2023/12/07 06:11:04;;;;;;;34.53;12.48;;;;;;;0.56;100.00;101831.47;5058391;28;20025;-72
2023/12/07 06:13:29;;;;;;;31.90;11.75;;;;;;;0.56;100.00;101829.72;5060491;28;20018;-72
2023/12/07 06:15:54;;;;;;;51.22;14.38;;;;;;;0.59;100.00;101836.75;5054981;28;20036;-72
2023/12/07 06:18:19;;;;;;;35.20;12.40;;;;;;;0.60;100.00;101826.13;5058078;28;20035;-72
2023/12/07 06:20:45;;;;;;;41.97;13.65;;;;;;;0.59;100.00;101827.03;5051134;28;20392;-71
2023/12/07 06:23:13;;;;;;;37.63;11.07;;;;;;;0.62;100.00;101818.16;5054539;28;20060;-72
2023/12/07 06:25:39;;;;;;;39.70;11.65;;;;;;;0.62;100.00;101819.03;5051554;28;20036;-72
2023/12/07 06:28:05;;;;;;;34.42;11.95;;;;;;;0.64;100.00;101822.50;5058971;28;20032;-72
2023/12/07 06:30:30;;;;;;;34.45;11.65;;;;;;;0.63;100.00;101828.72;5056544;28;20029;-72
2023/12/07 06:32:55;;;;;;;27.17;11.38;;;;;;;0.63;100.00;101834.03;5053473;28;20147;-72
2023/12/07 06:35:21;;;;;;;34.45;10.45;;;;;;;0.65;100.00;101829.56;5053977;28;20053;-71
2023/12/07 06:37:46;;;;;;;45.75;11.98;;;;;;;0.65;100.00;101818.13;5058586;28;20021;-72
2023/12/07 06:40:12;;;;;;;35.28;11.15;;;;;;;0.68;100.00;101813.63;5061102;28;20031;-72
2023/12/07 06:42:38;;;;;;;44.60;11.77;;;;;;;0.68;100.00;101802.19;5065618;28;20024;-71
2023/12/07 06:45:04;;;;;;;35.05;10.95;;;;;;;0.69;100.00;101796.00;5051669;28;20021;-71
2023/12/07 06:47:29;;;;;;;28.30;11.25;;;;;;;0.71;100.00;101796.84;5055135;28;20057;-71
2023/12/07 06:49:55;;;;;;;27.90;9.63;;;;;;;0.70;100.00;101787.16;5055186;28;20155;-72
2023/12/07 06:52:21;;;;;;;31.52;11.18;;;;;;;0.71;100.00;101788.03;5052186;28;20051;-72
2023/12/07 06:54:46;;;;;;;29.33;11.48;;;;;;;0.73;100.00;101788.88;5058287;28;20068;-72
2023/12/07 06:57:12;;;;;;;34.10;10.63;;;;;;;0.72;100.00;101797.69;5051586;28;20500;-72
2023/12/07 06:59:37;;;;;;;30.95;10.40;;;;;;;0.73;100.00;101797.69;5050049;28;20048;-72
2023/12/07 07:02:03;;;;;;;29.20;10.95;;;;;;;0.73;100.00;101796.81;5051885;28;20033;-72
2023/12/07 07:04:29;;;;;;;43.30;12.32;;;;;;;0.74;100.00;101803.88;5051449;28;20025;-72
2023/12/07 07:06:55;;;;;;;32.95;11.50;;;;;;;0.76;100.00;101799.41;5056494;28;20055;-72
2023/12/07 07:09:20;;;;;;;35.15;10.68;;;;;;;0.76;100.00;101799.41;5051655;28;20026;-72
2023/12/07 07:11:48;;;;;;;30.70;10.55;;;;;;;0.77;100.00;101811.75;5044668;28;20021;-72
2023/12/07 07:14:15;;;;;;;24.25;10.73;;;;;;;0.80;100.00;101806.41;5044329;28;20021;-72
2023/12/07 07:16:41;;;;;;;27.35;10.98;;;;;;;0.82;100.00;101812.53;5051360;28;20032;-72
2023/12/07 07:19:06;;;;;;;31.90;11.93;;;;;;;0.84;100.00;101814.25;5061332;28;20463;-72
2023/12/07 07:21:31;;;;;;;25.75;10.48;;;;;;;0.87;100.00;101811.53;5056578;28;20020;-72
2023/12/07 07:23:57;;;;;;;30.73;10.63;;;;;;;0.89;100.00;101810.66;5056807;28;20488;-72
2023/12/07 07:26:24;;;;;;;31.05;11.43;;;;;;;0.90;100.00;101817.72;5058599;28;20035;-72
2023/12/07 07:28:50;;;;;;;32.75;11.82;;;;;;;0.91;100.00;101822.06;5053930;28;20654;-72
2023/12/07 07:31:15;;;;;;;27.45;11.52;;;;;;;0.93;100.00;101820.28;5057568;28;20029;-72
2023/12/07 07:33:41;;;;;;;30.38;12.35;;;;;;;0.93;100.00;101826.44;5051686;28;20115;-72
2023/12/07 07:36:06;;;;;;;26.63;11.35;;;;;;;0.94;100.00;101830.84;5046051;28;20492;-72
2023/12/07 07:38:32;;;;;;;29.75;12.60;;;;;;;0.97;100.00;101827.28;5048877;28;20020;-72
2023/12/07 07:40:57;;;;;;;25.73;11.40;;;;;;;0.96;100.00;101826.41;5053367;28;20033;-71
2023/12/07 07:43:22;;;;;;;28.60;13.30;;;;;;;1.00;100.00;101824.59;5047223;28;20108;-72
2023/12/07 07:45:48;;;;;;;30.67;12.80;;;;;;;1.00;100.00;101820.16;5054447;28;20029;-72
2023/12/07 07:48:13;;;;;;;35.70;11.43;;;;;;;1.02;100.00;101823.63;5048163;28;20028;-72
2023/12/07 07:50:38;;;;;;;28.20;13.38;;;;;;;1.04;100.00;101815.69;5046523;28;20167;-72
2023/12/07 07:53:04;;;;;;;27.58;12.38;;;;;;;1.06;100.00;101819.19;5053940;28;20490;-72
2023/12/07 07:55:30;;;;;;;28.65;12.52;;;;;;;1.07;100.00;101813.00;5052017;28;20028;-72
2023/12/07 07:57:55;;;;;;;28.33;13.70;;;;;;;1.07;100.00;101804.16;5056926;28;20412;-72
2023/12/07 08:00:21;;;;;;;27.98;12.60;;;;;;;1.07;100.00;101812.09;5049877;28;20028;-72
2023/12/07 08:02:46;;;;;;;28.73;13.57;;;;;;;1.09;100.00;101810.31;5053771;28;20032;-72
2023/12/07 08:05:12;;;;;;;27.60;13.43;;;;;;;1.10;100.00;101814.69;5058609;28;20322;-72
2023/12/07 08:07:38;;;;;;;32.72;12.23;;;;;;;1.11;100.00;101816.44;5055604;28;20450;-72
2023/12/07 08:10:03;;;;;;;34.00;14.88;;;;;;;1.13;100.00;101809.31;5057314;28;20060;-72
2023/12/07 08:12:29;;;;;;;28.83;13.15;;;;;;;1.12;100.00;101804.97;5054708;28;20055;-72
2023/12/07 08:14:54;;;;;;;29.35;14.60;;;;;;;1.12;100.00;101810.25;5054454;28;20025;-72
2023/12/07 08:17:21;;;;;;;29.23;13.48;;;;;;;1.11;100.00;101801.41;5054225;28;20541;-72
2023/12/07 08:19:46;;;;;;;29.33;13.27;;;;;;;1.11;100.00;101814.66;5054450;28;20036;-70
2023/12/07 08:22:11;;;;;;;27.80;12.60;;;;;;;1.12;100.00;101821.69;5066468;28;20021;-71
2023/12/07 08:24:39;;;;;;;25.55;11.38;;;;;;;1.13;100.00;101814.63;5063242;28;20051;-70
2023/12/07 08:27:05;;;;;;;26.02;11.75;;;;;;;1.12;100.00;101820.84;5068812;28;20036;-69
2023/12/07 08:29:30;;;;;;;29.60;13.85;;;;;;;1.11;100.00;101811.13;5066181;28;20013;-71
2023/12/07 08:31:55;;;;;;;27.90;11.38;;;;;;;1.11;100.00;101816.44;5069003;28;20025;-71
2023/12/07 08:34:21;;;;;;;29.55;13.15;;;;;;;1.14;100.00;101813.72;5068022;28;20051;-71
2023/12/07 08:36:46;;;;;;;25.85;12.93;;;;;;;1.16;100.00;101814.59;5071779;28;20285;-70
2023/12/07 08:39:11;;;;;;;48.85;13.32;;;;;;;1.16;100.00;101810.16;5066731;28;20031;-71
2023/12/07 08:41:36;;;;;;;31.48;13.25;;;;;;;1.17;100.00;101814.56;5069010;28;20210;-71
2023/12/07 08:44:02;;;;;;;24.60;11.07;;;;;;;1.18;100.00;101815.44;5065071;28;20032;-70
2023/12/07 08:46:27;;;;;;;27.15;11.55;;;;;;;1.18;100.00;101812.78;5070481;28;20017;-70
2023/12/07 08:48:53;;;;;;;24.77;11.27;;;;;;;1.17;100.00;101818.97;5074466;28;20036;-70
2023/12/07 08:51:19;;;;;;;26.83;11.98;;;;;;;1.17;100.00;101817.22;5072803;28;20041;-70
2023/12/07 08:53:45;;;;;;;26.25;11.65;;;;;;;1.20;100.00;101817.16;5071922;28;20037;-70
2023/12/07 08:56:10;;;;;;;27.00;13.15;;;;;;;1.24;100.00;101820.59;5066394;28;20054;-70
2023/12/07 08:58:35;;;;;;;28.88;13.43;;;;;;;1.23;100.00;101821.53;5059773;28;20037;-70
2023/12/07 09:01:01;;;;;;;25.38;12.15;;;;;;;1.26;100.00;101821.47;5071500;28;20448;-70
2023/12/07 09:03:31;;;;;;;25.50;10.52;;;;;;;1.25;100.00;101819.72;5064044;28;20044;-71
2023/12/07 09:05:57;;;;;;;30.88;14.32;;;;;;;1.27;100.00;101807.31;5064492;28;20043;-70
2023/12/07 09:08:22;;;;;;;26.35;12.65;;;;;;;1.29;100.00;101812.56;5066591;28;20040;-70
2023/12/07 09:10:49;;;;;;;26.08;11.63;;;;;;;1.31;100.00;101819.59;5064375;28;20323;-71
2023/12/07 09:13:15;;;;;;;27.92;12.88;;;;;;;1.32;100.00;101810.75;5069072;28;20528;-70
2023/12/07 09:15:40;;;;;;;28.38;12.93;;;;;;;1.32;100.00;101802.81;5067687;28;20195;-70
2023/12/07 09:18:05;;;;;;;29.33;14.88;;;;;;;1.35;100.00;101807.19;5068012;28;20032;-72
2023/12/07 09:20:31;;;;;;;29.95;15.13;;;;;;;1.37;100.00;101808.00;5067497;28;20048;-70
2023/12/07 09:22:57;;;;;;;29.08;15.20;;;;;;;1.39;100.00;101812.38;5068999;28;20540;-71
2023/12/07 09:25:22;;;;;;;27.40;14.60;;;;;;;1.44;100.00;101803.47;5066709;28;20029;-70
2023/12/07 09:27:48;;;;;;;33.80;15.57;;;;;;;1.48;100.00;101799.84;5064341;28;20028;-70
2023/12/07 09:30:13;;;;;;;32.88;16.15;;;;;;;1.50;100.00;101801.56;5065354;28;20028;-72
2023/12/07 09:32:42;;;;;;;29.33;14.85;;;;;;;1.56;100.00;101795.25;5068044;28;20060;-72
2023/12/07 09:35:14;;;;;;;33.13;15.35;;;;;;;1.56;100.00;101788.19;5065110;28;20543;-72
2023/12/07 09:37:40;;;;;;;31.02;16.00;;;;;;;1.60;100.00;101785.47;5065142;28;20065;-72
2023/12/07 09:40:07;;;;;;;33.15;15.55;;;;;;;1.66;100.00;101777.41;5057378;28;20207;-72
2023/12/07 09:42:32;;;;;;;33.08;16.30;;;;;;;1.68;100.00;101775.59;5066434;28;20522;-72
2023/12/07 09:44:58;;;;;;;29.60;16.27;;;;;;;1.69;100.00;101780.84;5056374;28;20086;-72
2023/12/07 09:47:24;;;;;;;30.35;15.55;;;;;;;1.72;100.00;101786.09;5063646;28;20408;-72
2023/12/07 09:49:50;;;;;;;32.70;16.65;;;;;;;1.74;100.00;101779.00;5063049;28;20037;-72
2023/12/07 09:52:16;;;;;;;31.95;15.73;;;;;;;1.80;100.00;101767.38;5062937;28;20093;-72
2023/12/07 09:54:43;;;;;;;31.38;15.95;;;;;;;1.83;100.00;101758.47;5063545;28;20052;-72
2023/12/07 09:57:11;;;;;;;29.95;16.02;;;;;;;1.88;100.00;101756.59;5067776;28;20068;-72
2023/12/07 09:59:37;;;;;;;32.60;15.27;;;;;;;1.94;100.00;101751.16;5069474;28;20066;-72
2023/12/07 10:02:02;;;;;;;28.48;14.73;;;;;;;1.95;100.00;101750.25;5069264;28;20032;-72
2023/12/07 10:04:28;;;;;;;31.27;14.82;;;;;;;1.96;100.00;101741.38;5066330;28;20022;-72
2023/12/07 10:06:54;;;;;;;29.45;14.57;;;;;;;1.97;100.00;101740.47;5066854;28;20063;-72
2023/12/07 10:09:21;;;;;;;33.38;15.15;;;;;;;1.98;100.00;101731.63;5070244;28;20343;-72
2023/12/07 10:11:47;;;;;;;32.85;14.38;;;;;;;2.02;100.00;101728.00;5066841;28;20057;-72
2023/12/07 10:14:12;;;;;;;27.38;13.43;;;;;;;2.04;100.00;101723.53;5063256;28;20064;-72
2023/12/07 10:16:37;;;;;;;27.83;13.30;;;;;;;2.08;100.00;101724.34;5067244;28;20085;-72
2023/12/07 10:19:21;;;;;;;27.13;14.18;;;;;;;2.10;100.00;101719.84;5064692;28;20105;-72
2023/12/07 10:21:46;;;;;;;29.85;13.93;;;;;;;2.09;100.00;101719.00;5066050;28;20077;-72
2023/12/07 10:24:12;;;;;;;26.70;14.18;;;;;;;2.12;100.00;101711.88;5066262;28;20091;-72
2023/12/07 10:26:38;;;;;;;28.52;13.45;;;;;;;2.10;100.00;101704.81;5062060;28;20475;-72
2023/12/07 10:29:07;;;;;;;29.13;14.43;;;;;;;2.10;100.00;101694.19;5065724;28;20357;-72
2023/12/07 10:31:33;;;;;;;28.90;14.35;;;;;;;2.16;100.00;101697.63;5053137;28;20028;-72
2023/12/07 10:33:59;;;;;;;30.20;14.43;;;;;;;2.18;100.00;101702.00;5060796;28;20025;-72
2023/12/07 10:36:25;;;;;;;28.98;14.43;;;;;;;2.24;100.00;101695.63;5064725;28;20025;-72
2023/12/07 10:38:51;;;;;;;28.48;13.60;;;;;;;2.27;100.00;101695.59;5065932;28;20127;-72
2023/12/07 10:41:19;;;;;;;24.88;12.05;;;;;;;2.30;100.00;101697.28;5054862;28;20038;-72
2023/12/07 10:44:08;;;;;;;27.58;12.32;;;;;;;2.31;100.00;101688.41;5053277;28;20043;-72
2023/12/07 10:46:38;;;;;;;29.65;13.18;;;;;;;2.31;100.00;101683.09;5058555;28;20344;-72
2023/12/07 10:49:10;;;;;;;27.23;12.77;;;;;;;2.33;100.00;101666.25;5052830;28;20017;-72
2023/12/07 10:51:51;;;;;;;25.95;11.38;;;;;;;2.37;100.00;101670.56;5053738;28;20087;-72
2023/12/07 10:54:22;;;;;;;26.25;12.52;;;;;;;2.39;100.00;101663.44;5052790;28;20040;-72
2023/12/07 10:56:49;;;;;;;24.95;12.70;;;;;;;2.40;100.00;101667.84;5055513;28;20027;-72
2023/12/07 10:59:16;;;;;;;26.25;11.35;;;;;;;2.42;100.00;101666.00;5058197;28;20419;-72
2023/12/07 11:01:42;;;;;;;26.63;12.20;;;;;;;2.46;100.00;101666.81;5056794;28;20071;-72